sensor_id;sensor_type;location;lat;lon;timestamp;temperature;humidity
23207;DHT22;11773;52.570;13.052;2023-07-31T00:01:33;18.50;99.90
23207;DHT22;11773;52.570;13.052;2023-07-31T00:04:03;18.60;99.90
23207;DHT22;11773;52.570;13.052;2023-07-31T00:06:33;18.70;99.90
23207;DHT22;11773;52.570;13.052;2023-07-31T00:09:02;18.70;99.90
23207;DHT22;11773;52.570;13.052;2023-07-31T00:11:32;18.60;99.90
23207;DHT22;11773;52.570;13.052;2023-07-31T00:14:02;18.60;99.90
23207;DHT22;11773;52.570;13.052;2023-07-31T00:16:31;18.70;99.90
23207;DHT22;11773;52.570;13.052;2023-07-31T00:19:01;18.70;99.90
23207;DHT22;11773;52.570;13.052;2023-07-31T00:21:30;18.70;99.90
23207;DHT22;11773;52.570;13.052;2023-07-31T00:24:00;18.70;99.90
23207;DHT22;11773;52.570;13.052;2023-07-31T00:26:30;18.60;99.90
23207;DHT22;11773;52.570;13.052;2023-07-31T00:28:59;18.50;99.90
23207;DHT22;11773;52.570;13.052;2023-07-31T00:31:29;18.60;99.90
23207;DHT22;11773;52.570;13.052;2023-07-31T00:33:58;18.60;99.90
23207;DHT22;11773;52.570;13.052;2023-07-31T00:36:28;18.60;99.90
23207;DHT22;11773;52.570;13.052;2023-07-31T00:38:57;18.50;99.90
23207;DHT22;11773;52.570;13.052;2023-07-31T00:41:27;18.50;99.90
23207;DHT22;11773;52.570;13.052;2023-07-31T00:43:57;18.40;99.90
23207;DHT22;11773;52.570;13.052;2023-07-31T00:46:26;18.40;99.90
23207;DHT22;11773;52.570;13.052;2023-07-31T00:48:56;18.50;99.90
23207;DHT22;11773;52.570;13.052;2023-07-31T00:51:26;18.60;99.90
23207;DHT22;11773;52.570;13.052;2023-07-31T00:53:56;18.60;99.90
23207;DHT22;11773;52.570;13.052;2023-07-31T00:56:26;18.60;99.90
23207;DHT22;11773;52.570;13.052;2023-07-31T00:58:57;18.50;99.90
23207;DHT22;11773;52.570;13.052;2023-07-31T01:01:27;18.60;99.90
23207;DHT22;11773;52.570;13.052;2023-07-31T01:03:57;18.60;99.90
23207;DHT22;11773;52.570;13.052;2023-07-31T01:06:43;18.50;99.90
23207;DHT22;11773;52.570;13.052;2023-07-31T01:09:36;18.50;99.90
23207;DHT22;11773;52.570;13.052;2023-07-31T01:12:15;18.50;99.90
23207;DHT22;11773;52.570;13.052;2023-07-31T01:15:01;18.50;99.90
23207;DHT22;11773;52.570;13.052;2023-07-31T01:17:33;18.50;99.90
23207;DHT22;11773;52.570;13.052;2023-07-31T01:20:05;18.20;99.90
23207;DHT22;11773;52.570;13.052;2023-07-31T01:26:11;18.30;99.90
23207;DHT22;11773;52.570;13.052;2023-07-31T01:28:53;18.50;99.90
23207;DHT22;11773;52.570;13.052;2023-07-31T01:31:25;18.20;99.90
23207;DHT22;11773;52.570;13.052;2023-07-31T01:34:01;18.30;99.90
23207;DHT22;11773;52.570;13.052;2023-07-31T01:36:31;18.50;99.90
23207;DHT22;11773;52.570;13.052;2023-07-31T01:39:02;18.50;99.90
23207;DHT22;11773;52.570;13.052;2023-07-31T01:41:31;18.40;99.90
23207;DHT22;11773;52.570;13.052;2023-07-31T01:44:01;18.30;99.90
23207;DHT22;11773;52.570;13.052;2023-07-31T01:46:31;18.50;99.90
23207;DHT22;11773;52.570;13.052;2023-07-31T01:49:01;18.60;99.90
23207;DHT22;11773;52.570;13.052;2023-07-31T01:51:30;18.50;99.90
23207;DHT22;11773;52.570;13.052;2023-07-31T01:54:02;18.50;99.90
23207;DHT22;11773;52.570;13.052;2023-07-31T01:56:32;18.50;99.90
23207;DHT22;11773;52.570;13.052;2023-07-31T01:59:02;18.60;99.90
23207;DHT22;11773;52.570;13.052;2023-07-31T02:01:32;18.50;99.90
23207;DHT22;11773;52.570;13.052;2023-07-31T02:04:01;18.60;99.90
23207;DHT22;11773;52.570;13.052;2023-07-31T02:06:32;18.60;99.90
23207;DHT22;11773;52.570;13.052;2023-07-31T02:09:02;18.60;99.90
23207;DHT22;11773;52.570;13.052;2023-07-31T02:11:31;18.60;99.90
23207;DHT22;11773;52.570;13.052;2023-07-31T02:14:01;18.40;99.90
23207;DHT22;11773;52.570;13.052;2023-07-31T02:16:31;18.40;99.90
23207;DHT22;11773;52.570;13.052;2023-07-31T02:19:00;18.40;99.90
23207;DHT22;11773;52.570;13.052;2023-07-31T02:21:30;18.50;99.90
23207;DHT22;11773;52.570;13.052;2023-07-31T02:23:59;18.50;99.90
23207;DHT22;11773;52.570;13.052;2023-07-31T02:26:29;18.50;99.90
23207;DHT22;11773;52.570;13.052;2023-07-31T02:28:58;18.40;99.90
23207;DHT22;11773;52.570;13.052;2023-07-31T02:31:28;18.50;99.90
23207;DHT22;11773;52.570;13.052;2023-07-31T02:33:58;18.40;99.90
23207;DHT22;11773;52.570;13.052;2023-07-31T02:36:27;18.50;99.90
23207;DHT22;11773;52.570;13.052;2023-07-31T02:38:57;18.60;99.90
23207;DHT22;11773;52.570;13.052;2023-07-31T02:41:27;18.60;99.90
23207;DHT22;11773;52.570;13.052;2023-07-31T02:43:56;18.60;99.90
23207;DHT22;11773;52.570;13.052;2023-07-31T02:46:26;18.50;99.90
23207;DHT22;11773;52.570;13.052;2023-07-31T02:48:55;18.50;99.90
23207;DHT22;11773;52.570;13.052;2023-07-31T02:51:25;18.40;99.90
23207;DHT22;11773;52.570;13.052;2023-07-31T02:53:54;18.40;99.90
23207;DHT22;11773;52.570;13.052;2023-07-31T02:56:24;18.30;99.90
23207;DHT22;11773;52.570;13.052;2023-07-31T02:58:53;18.50;99.90
23207;DHT22;11773;52.570;13.052;2023-07-31T03:01:23;18.50;99.90
23207;DHT22;11773;52.570;13.052;2023-07-31T03:03:53;18.40;99.90
23207;DHT22;11773;52.570;13.052;2023-07-31T03:06:22;18.40;99.90
23207;DHT22;11773;52.570;13.052;2023-07-31T03:08:52;18.50;99.90
23207;DHT22;11773;52.570;13.052;2023-07-31T03:11:21;18.50;99.90
23207;DHT22;11773;52.570;13.052;2023-07-31T03:13:51;18.30;99.90
23207;DHT22;11773;52.570;13.052;2023-07-31T03:16:22;18.50;99.90
23207;DHT22;11773;52.570;13.052;2023-07-31T03:18:51;18.50;99.90
23207;DHT22;11773;52.570;13.052;2023-07-31T03:21:21;18.40;99.90
23207;DHT22;11773;52.570;13.052;2023-07-31T03:23:51;18.40;99.90
23207;DHT22;11773;52.570;13.052;2023-07-31T03:26:21;18.30;99.90
23207;DHT22;11773;52.570;13.052;2023-07-31T03:28:51;18.30;99.90
23207;DHT22;11773;52.570;13.052;2023-07-31T03:31:20;18.40;99.90
23207;DHT22;11773;52.570;13.052;2023-07-31T03:33:50;18.40;99.90
23207;DHT22;11773;52.570;13.052;2023-07-31T03:36:19;18.20;99.90
23207;DHT22;11773;52.570;13.052;2023-07-31T03:38:50;18.30;99.90
23207;DHT22;11773;52.570;13.052;2023-07-31T03:41:20;18.40;99.90
23207;DHT22;11773;52.570;13.052;2023-07-31T03:43:51;18.30;99.90
23207;DHT22;11773;52.570;13.052;2023-07-31T03:46:20;18.40;99.90
23207;DHT22;11773;52.570;13.052;2023-07-31T03:48:51;18.30;99.90
23207;DHT22;11773;52.570;13.052;2023-07-31T03:51:20;18.20;99.90
23207;DHT22;11773;52.570;13.052;2023-07-31T03:53:50;18.30;99.90
23207;DHT22;11773;52.570;13.052;2023-07-31T03:56:19;18.30;99.90
23207;DHT22;11773;52.570;13.052;2023-07-31T03:58:49;18.20;99.90
23207;DHT22;11773;52.570;13.052;2023-07-31T04:01:19;18.30;99.90
23207;DHT22;11773;52.570;13.052;2023-07-31T04:03:48;18.40;99.90
23207;DHT22;11773;52.570;13.052;2023-07-31T04:06:18;18.40;99.90
23207;DHT22;11773;52.570;13.052;2023-07-31T04:08:47;18.20;99.90
23207;DHT22;11773;52.570;13.052;2023-07-31T04:11:17;18.20;99.90
23207;DHT22;11773;52.570;13.052;2023-07-31T04:13:47;18.20;99.90
23207;DHT22;11773;52.570;13.052;2023-07-31T04:16:16;18.30;99.90
23207;DHT22;11773;52.570;13.052;2023-07-31T04:18:46;18.30;99.90
23207;DHT22;11773;52.570;13.052;2023-07-31T04:21:15;18.30;99.90
23207;DHT22;11773;52.570;13.052;2023-07-31T04:23:45;18.10;99.90
23207;DHT22;11773;52.570;13.052;2023-07-31T04:26:15;18.00;99.90
23207;DHT22;11773;52.570;13.052;2023-07-31T04:28:44;17.90;99.90
23207;DHT22;11773;52.570;13.052;2023-07-31T04:31:14;18.20;99.90
23207;DHT22;11773;52.570;13.052;2023-07-31T04:33:43;18.30;99.90
23207;DHT22;11773;52.570;13.052;2023-07-31T04:36:13;18.30;99.90
23207;DHT22;11773;52.570;13.052;2023-07-31T04:38:43;18.10;99.90
23207;DHT22;11773;52.570;13.052;2023-07-31T04:41:12;18.10;99.90
23207;DHT22;11773;52.570;13.052;2023-07-31T04:43:42;18.30;99.90
23207;DHT22;11773;52.570;13.052;2023-07-31T04:46:12;18.30;99.90
23207;DHT22;11773;52.570;13.052;2023-07-31T04:48:42;18.40;99.90
23207;DHT22;11773;52.570;13.052;2023-07-31T04:51:11;18.20;99.90
23207;DHT22;11773;52.570;13.052;2023-07-31T04:53:41;18.00;99.90
23207;DHT22;11773;52.570;13.052;2023-07-31T04:56:11;18.10;99.90
23207;DHT22;11773;52.570;13.052;2023-07-31T04:58:41;18.20;99.90
23207;DHT22;11773;52.570;13.052;2023-07-31T05:01:11;18.30;99.90
23207;DHT22;11773;52.570;13.052;2023-07-31T05:03:40;18.20;99.90
23207;DHT22;11773;52.570;13.052;2023-07-31T05:06:10;18.30;99.90
23207;DHT22;11773;52.570;13.052;2023-07-31T05:08:41;18.20;99.90
23207;DHT22;11773;52.570;13.052;2023-07-31T05:11:10;18.30;99.90
23207;DHT22;11773;52.570;13.052;2023-07-31T05:13:40;18.20;99.90
23207;DHT22;11773;52.570;13.052;2023-07-31T05:16:10;18.20;99.90
23207;DHT22;11773;52.570;13.052;2023-07-31T05:18:39;18.40;99.90
23207;DHT22;11773;52.570;13.052;2023-07-31T05:21:09;18.40;99.90
23207;DHT22;11773;52.570;13.052;2023-07-31T05:23:38;18.20;99.90
23207;DHT22;11773;52.570;13.052;2023-07-31T05:26:08;18.30;99.90
23207;DHT22;11773;52.570;13.052;2023-07-31T05:28:38;18.50;99.90
23207;DHT22;11773;52.570;13.052;2023-07-31T05:31:07;18.40;99.90
23207;DHT22;11773;52.570;13.052;2023-07-31T05:33:37;18.30;99.90
23207;DHT22;11773;52.570;13.052;2023-07-31T05:36:07;18.40;99.90
23207;DHT22;11773;52.570;13.052;2023-07-31T05:38:37;18.60;99.90
23207;DHT22;11773;52.570;13.052;2023-07-31T05:41:08;18.70;99.90
23207;DHT22;11773;52.570;13.052;2023-07-31T05:43:37;18.60;99.90
23207;DHT22;11773;52.570;13.052;2023-07-31T05:46:09;18.60;99.90
23207;DHT22;11773;52.570;13.052;2023-07-31T05:48:39;18.60;99.90
23207;DHT22;11773;52.570;13.052;2023-07-31T05:51:09;18.20;99.90
23207;DHT22;11773;52.570;13.052;2023-07-31T05:53:39;18.30;99.90
23207;DHT22;11773;52.570;13.052;2023-07-31T05:56:09;18.50;99.90
23207;DHT22;11773;52.570;13.052;2023-07-31T05:58:39;18.20;99.90
23207;DHT22;11773;52.570;13.052;2023-07-31T06:01:08;18.50;99.90
23207;DHT22;11773;52.570;13.052;2023-07-31T06:03:38;18.40;99.90
23207;DHT22;11773;52.570;13.052;2023-07-31T06:06:07;18.10;99.90
23207;DHT22;11773;52.570;13.052;2023-07-31T06:08:37;18.30;99.90
23207;DHT22;11773;52.570;13.052;2023-07-31T06:11:07;18.30;99.90
23207;DHT22;11773;52.570;13.052;2023-07-31T06:13:37;18.20;99.90
23207;DHT22;11773;52.570;13.052;2023-07-31T06:16:08;18.40;99.90
23207;DHT22;11773;52.570;13.052;2023-07-31T06:18:38;18.30;99.90
23207;DHT22;11773;52.570;13.052;2023-07-31T06:21:09;18.30;99.90
23207;DHT22;11773;52.570;13.052;2023-07-31T06:23:39;18.40;99.90
23207;DHT22;11773;52.570;13.052;2023-07-31T06:26:08;18.40;99.90
23207;DHT22;11773;52.570;13.052;2023-07-31T06:28:38;18.50;99.90
23207;DHT22;11773;52.570;13.052;2023-07-31T06:31:08;18.40;99.90
23207;DHT22;11773;52.570;13.052;2023-07-31T06:33:38;18.40;99.90
23207;DHT22;11773;52.570;13.052;2023-07-31T06:36:08;18.60;99.90
23207;DHT22;11773;52.570;13.052;2023-07-31T06:38:37;18.50;99.90
23207;DHT22;11773;52.570;13.052;2023-07-31T06:41:07;18.70;99.90
23207;DHT22;11773;52.570;13.052;2023-07-31T06:43:37;18.80;99.90
23207;DHT22;11773;52.570;13.052;2023-07-31T06:46:07;18.90;99.90
23207;DHT22;11773;52.570;13.052;2023-07-31T06:48:38;18.70;99.90
23207;DHT22;11773;52.570;13.052;2023-07-31T06:51:08;18.80;99.90
23207;DHT22;11773;52.570;13.052;2023-07-31T06:53:37;18.90;99.90
23207;DHT22;11773;52.570;13.052;2023-07-31T06:56:07;18.70;99.90
23207;DHT22;11773;52.570;13.052;2023-07-31T06:58:36;18.90;99.90
23207;DHT22;11773;52.570;13.052;2023-07-31T07:01:06;18.80;99.90
23207;DHT22;11773;52.570;13.052;2023-07-31T07:03:36;18.50;99.90
23207;DHT22;11773;52.570;13.052;2023-07-31T07:06:05;18.50;99.90
23207;DHT22;11773;52.570;13.052;2023-07-31T07:08:35;18.50;99.90
23207;DHT22;11773;52.570;13.052;2023-07-31T07:11:05;18.60;99.90
23207;DHT22;11773;52.570;13.052;2023-07-31T07:13:34;18.70;99.90
23207;DHT22;11773;52.570;13.052;2023-07-31T07:16:05;18.80;99.90
23207;DHT22;11773;52.570;13.052;2023-07-31T07:18:35;19.00;99.90
23207;DHT22;11773;52.570;13.052;2023-07-31T07:21:06;19.00;99.90
23207;DHT22;11773;52.570;13.052;2023-07-31T07:23:36;18.90;99.90
23207;DHT22;11773;52.570;13.052;2023-07-31T07:26:06;19.10;99.90
23207;DHT22;11773;52.570;13.052;2023-07-31T07:28:35;19.00;99.90
23207;DHT22;11773;52.570;13.052;2023-07-31T07:31:05;18.80;99.90
23207;DHT22;11773;52.570;13.052;2023-07-31T07:33:34;18.90;99.90
23207;DHT22;11773;52.570;13.052;2023-07-31T07:36:04;18.90;99.90
23207;DHT22;11773;52.570;13.052;2023-07-31T07:38:36;19.00;99.90
23207;DHT22;11773;52.570;13.052;2023-07-31T07:41:06;18.90;99.90
23207;DHT22;11773;52.570;13.052;2023-07-31T07:43:36;18.90;99.90
23207;DHT22;11773;52.570;13.052;2023-07-31T07:46:06;18.80;99.90
23207;DHT22;11773;52.570;13.052;2023-07-31T07:48:35;19.00;99.90
23207;DHT22;11773;52.570;13.052;2023-07-31T07:51:05;18.80;99.90
23207;DHT22;11773;52.570;13.052;2023-07-31T07:53:34;18.90;99.90
23207;DHT22;11773;52.570;13.052;2023-07-31T07:56:04;18.90;99.90
23207;DHT22;11773;52.570;13.052;2023-07-31T07:58:33;18.70;99.90
23207;DHT22;11773;52.570;13.052;2023-07-31T08:01:03;18.90;99.90
23207;DHT22;11773;52.570;13.052;2023-07-31T08:03:33;18.90;99.90
23207;DHT22;11773;52.570;13.052;2023-07-31T08:06:03;18.90;99.90
23207;DHT22;11773;52.570;13.052;2023-07-31T08:08:32;18.80;99.90
23207;DHT22;11773;52.570;13.052;2023-07-31T08:11:02;19.00;99.90
23207;DHT22;11773;52.570;13.052;2023-07-31T08:13:32;19.10;99.90
23207;DHT22;11773;52.570;13.052;2023-07-31T08:16:04;19.00;99.90
23207;DHT22;11773;52.570;13.052;2023-07-31T08:18:33;19.20;99.90
23207;DHT22;11773;52.570;13.052;2023-07-31T08:21:03;19.30;99.90
23207;DHT22;11773;52.570;13.052;2023-07-31T08:23:33;19.10;99.90
23207;DHT22;11773;52.570;13.052;2023-07-31T08:26:03;19.10;99.90
23207;DHT22;11773;52.570;13.052;2023-07-31T08:28:32;19.10;99.90
23207;DHT22;11773;52.570;13.052;2023-07-31T08:31:03;19.20;99.90
23207;DHT22;11773;52.570;13.052;2023-07-31T08:33:33;19.20;99.90
23207;DHT22;11773;52.570;13.052;2023-07-31T08:36:03;19.40;99.90
23207;DHT22;11773;52.570;13.052;2023-07-31T08:38:33;19.30;99.90
23207;DHT22;11773;52.570;13.052;2023-07-31T08:41:05;19.60;99.90
23207;DHT22;11773;52.570;13.052;2023-07-31T08:43:35;19.60;99.90
23207;DHT22;11773;52.570;13.052;2023-07-31T08:46:06;19.40;99.90
23207;DHT22;11773;52.570;13.052;2023-07-31T08:48:37;19.50;99.90
23207;DHT22;11773;52.570;13.052;2023-07-31T08:51:07;19.50;99.90
23207;DHT22;11773;52.570;13.052;2023-07-31T08:53:37;19.60;99.90
23207;DHT22;11773;52.570;13.052;2023-07-31T08:56:07;19.50;99.90
23207;DHT22;11773;52.570;13.052;2023-07-31T08:58:37;19.30;99.90
23207;DHT22;11773;52.570;13.052;2023-07-31T09:01:08;19.40;99.90
23207;DHT22;11773;52.570;13.052;2023-07-31T09:03:39;19.20;99.90
23207;DHT22;11773;52.570;13.052;2023-07-31T09:06:10;19.20;99.90
23207;DHT22;11773;52.570;13.052;2023-07-31T09:08:42;19.30;99.90
23207;DHT22;11773;52.570;13.052;2023-07-31T09:11:12;19.40;99.90
23207;DHT22;11773;52.570;13.052;2023-07-31T09:13:43;18.90;99.90
23207;DHT22;11773;52.570;13.052;2023-07-31T09:16:13;19.00;99.90
23207;DHT22;11773;52.570;13.052;2023-07-31T09:18:56;19.00;99.90
23207;DHT22;11773;52.570;13.052;2023-07-31T09:21:26;19.20;99.90
23207;DHT22;11773;52.570;13.052;2023-07-31T09:23:56;19.10;99.90
23207;DHT22;11773;52.570;13.052;2023-07-31T09:26:35;19.20;99.90
23207;DHT22;11773;52.570;13.052;2023-07-31T09:29:07;19.00;99.90
23207;DHT22;11773;52.570;13.052;2023-07-31T09:31:41;19.20;99.90
23207;DHT22;11773;52.570;13.052;2023-07-31T09:34:12;19.30;99.90
23207;DHT22;11773;52.570;13.052;2023-07-31T09:36:46;18.90;99.90
23207;DHT22;11773;52.570;13.052;2023-07-31T09:39:18;18.90;99.90
23207;DHT22;11773;52.570;13.052;2023-07-31T09:41:55;19.20;99.90
23207;DHT22;11773;52.570;13.052;2023-07-31T09:44:38;19.10;99.90
23207;DHT22;11773;52.570;13.052;2023-07-31T09:47:22;19.00;99.90
23207;DHT22;11773;52.570;13.052;2023-07-31T09:49:54;18.90;99.90
23207;DHT22;11773;52.570;13.052;2023-07-31T09:52:26;18.90;99.90
23207;DHT22;11773;52.570;13.052;2023-07-31T09:54:55;19.20;99.90
23207;DHT22;11773;52.570;13.052;2023-07-31T09:57:25;19.40;99.90
23207;DHT22;11773;52.570;13.052;2023-07-31T09:59:56;19.30;99.90
23207;DHT22;11773;52.570;13.052;2023-07-31T10:02:27;18.80;99.90
23207;DHT22;11773;52.570;13.052;2023-07-31T10:05:01;18.80;99.90
23207;DHT22;11773;52.570;13.052;2023-07-31T10:07:42;19.00;99.90
23207;DHT22;11773;52.570;13.052;2023-07-31T10:10:08;19.00;99.90
23207;DHT22;11773;52.570;13.052;2023-07-31T10:12:39;19.10;99.90
23207;DHT22;11773;52.570;13.052;2023-07-31T10:15:09;19.20;99.90
23207;DHT22;11773;52.570;13.052;2023-07-31T10:17:40;19.30;99.90
23207;DHT22;11773;52.570;13.052;2023-07-31T10:20:11;19.30;99.90
23207;DHT22;11773;52.570;13.052;2023-07-31T10:22:41;19.40;99.90
23207;DHT22;11773;52.570;13.052;2023-07-31T10:25:15;19.50;99.90
23207;DHT22;11773;52.570;13.052;2023-07-31T10:27:45;19.50;99.90
23207;DHT22;11773;52.570;13.052;2023-07-31T10:30:18;19.60;99.90
23207;DHT22;11773;52.570;13.052;2023-07-31T10:32:51;19.70;99.90
23207;DHT22;11773;52.570;13.052;2023-07-31T10:35:22;19.80;99.90
23207;DHT22;11773;52.570;13.052;2023-07-31T10:37:52;20.20;99.90
23207;DHT22;11773;52.570;13.052;2023-07-31T10:40:26;20.50;99.90
23207;DHT22;11773;52.570;13.052;2023-07-31T10:42:57;20.70;99.90
23207;DHT22;11773;52.570;13.052;2023-07-31T10:45:34;20.60;99.90
23207;DHT22;11773;52.570;13.052;2023-07-31T10:48:13;20.70;99.90
23207;DHT22;11773;52.570;13.052;2023-07-31T10:50:56;21.00;99.90
23207;DHT22;11773;52.570;13.052;2023-07-31T10:53:30;21.10;99.90
23207;DHT22;11773;52.570;13.052;2023-07-31T10:56:05;21.20;99.90
23207;DHT22;11773;52.570;13.052;2023-07-31T10:58:37;21.30;99.90
23207;DHT22;11773;52.570;13.052;2023-07-31T11:01:06;21.20;99.90
23207;DHT22;11773;52.570;13.052;2023-07-31T11:03:47;21.10;99.90
23207;DHT22;11773;52.570;13.052;2023-07-31T11:06:20;21.10;99.90
23207;DHT22;11773;52.570;13.052;2023-07-31T11:08:51;21.10;99.90
23207;DHT22;11773;52.570;13.052;2023-07-31T11:11:20;21.20;99.90
23207;DHT22;11773;52.570;13.052;2023-07-31T11:13:52;21.10;99.90
23207;DHT22;11773;52.570;13.052;2023-07-31T11:16:23;21.10;99.90
23207;DHT22;11773;52.570;13.052;2023-07-31T11:18:53;21.10;99.90
23207;DHT22;11773;52.570;13.052;2023-07-31T11:21:25;21.00;99.90
23207;DHT22;11773;52.570;13.052;2023-07-31T11:23:56;21.00;99.90
23207;DHT22;11773;52.570;13.052;2023-07-31T11:26:27;21.00;99.90
23207;DHT22;11773;52.570;13.052;2023-07-31T11:28:58;21.10;99.90
23207;DHT22;11773;52.570;13.052;2023-07-31T11:31:28;21.10;99.90
23207;DHT22;11773;52.570;13.052;2023-07-31T11:34:07;21.00;99.90
23207;DHT22;11773;52.570;13.052;2023-07-31T11:36:36;21.00;99.90
23207;DHT22;11773;52.570;13.052;2023-07-31T11:39:10;21.10;99.90
23207;DHT22;11773;52.570;13.052;2023-07-31T11:41:42;21.10;99.90
23207;DHT22;11773;52.570;13.052;2023-07-31T11:44:12;21.00;99.90
23207;DHT22;11773;52.570;13.052;2023-07-31T11:46:43;21.00;99.90
23207;DHT22;11773;52.570;13.052;2023-07-31T11:49:13;21.00;99.90
23207;DHT22;11773;52.570;13.052;2023-07-31T11:51:43;21.00;99.90
23207;DHT22;11773;52.570;13.052;2023-07-31T11:54:13;21.10;99.90
23207;DHT22;11773;52.570;13.052;2023-07-31T11:56:44;21.10;99.90
23207;DHT22;11773;52.570;13.052;2023-07-31T11:59:13;21.20;99.90
23207;DHT22;11773;52.570;13.052;2023-07-31T12:01:43;21.00;99.90
23207;DHT22;11773;52.570;13.052;2023-07-31T12:04:14;21.10;99.90
23207;DHT22;11773;52.570;13.052;2023-07-31T12:06:44;21.10;99.90
23207;DHT22;11773;52.570;13.052;2023-07-31T12:09:16;21.10;99.90
23207;DHT22;11773;52.570;13.052;2023-07-31T12:11:47;21.10;99.90
23207;DHT22;11773;52.570;13.052;2023-07-31T12:14:21;21.20;99.90
23207;DHT22;11773;52.570;13.052;2023-07-31T12:16:58;20.90;99.90
23207;DHT22;11773;52.570;13.052;2023-07-31T12:19:30;21.00;99.90
23207;DHT22;11773;52.570;13.052;2023-07-31T12:22:00;20.90;99.90
23207;DHT22;11773;52.570;13.052;2023-07-31T12:24:30;20.70;99.90
23207;DHT22;11773;52.570;13.052;2023-07-31T12:27:12;20.90;99.90
23207;DHT22;11773;52.570;13.052;2023-07-31T12:29:42;20.80;99.90
23207;DHT22;11773;52.570;13.052;2023-07-31T12:35:08;20.90;99.90
23207;DHT22;11773;52.570;13.052;2023-07-31T12:37:38;21.00;99.90
23207;DHT22;11773;52.570;13.052;2023-07-31T12:40:08;21.10;99.90
23207;DHT22;11773;52.570;13.052;2023-07-31T12:42:38;21.00;99.90
23207;DHT22;11773;52.570;13.052;2023-07-31T12:45:09;21.10;99.90
23207;DHT22;11773;52.570;13.052;2023-07-31T12:47:39;21.30;99.90
23207;DHT22;11773;52.570;13.052;2023-07-31T12:50:08;21.50;99.90
23207;DHT22;11773;52.570;13.052;2023-07-31T12:52:38;21.10;99.90
23207;DHT22;11773;52.570;13.052;2023-07-31T12:55:08;21.20;99.90
23207;DHT22;11773;52.570;13.052;2023-07-31T12:57:40;20.70;99.90
23207;DHT22;11773;52.570;13.052;2023-07-31T13:00:10;20.70;99.90
23207;DHT22;11773;52.570;13.052;2023-07-31T13:02:40;20.70;99.90
23207;DHT22;11773;52.570;13.052;2023-07-31T13:05:10;20.90;99.90
23207;DHT22;11773;52.570;13.052;2023-07-31T13:07:41;20.70;99.90
23207;DHT22;11773;52.570;13.052;2023-07-31T13:10:10;20.70;99.90
23207;DHT22;11773;52.570;13.052;2023-07-31T13:12:40;21.00;99.90
23207;DHT22;11773;52.570;13.052;2023-07-31T13:15:10;20.80;99.90
23207;DHT22;11773;52.570;13.052;2023-07-31T13:17:40;21.10;99.90
23207;DHT22;11773;52.570;13.052;2023-07-31T13:20:10;21.40;99.90
23207;DHT22;11773;52.570;13.052;2023-07-31T13:22:40;21.20;99.90
23207;DHT22;11773;52.570;13.052;2023-07-31T13:25:11;21.30;99.90
23207;DHT22;11773;52.570;13.052;2023-07-31T13:27:41;21.50;99.90
23207;DHT22;11773;52.570;13.052;2023-07-31T13:30:11;21.60;99.90
23207;DHT22;11773;52.570;13.052;2023-07-31T13:32:40;21.70;99.90
23207;DHT22;11773;52.570;13.052;2023-07-31T13:35:10;21.80;99.90
23207;DHT22;11773;52.570;13.052;2023-07-31T13:37:39;22.00;99.90
23207;DHT22;11773;52.570;13.052;2023-07-31T13:40:09;22.00;99.90
23207;DHT22;11773;52.570;13.052;2023-07-31T13:42:39;22.00;99.90
23207;DHT22;11773;52.570;13.052;2023-07-31T13:45:09;21.90;99.90
23207;DHT22;11773;52.570;13.052;2023-07-31T13:47:38;21.80;99.90
23207;DHT22;11773;52.570;13.052;2023-07-31T13:50:08;21.80;99.90
23207;DHT22;11773;52.570;13.052;2023-07-31T13:52:38;21.60;99.90
23207;DHT22;11773;52.570;13.052;2023-07-31T13:55:08;21.50;99.90
23207;DHT22;11773;52.570;13.052;2023-07-31T13:57:38;21.40;99.90
23207;DHT22;11773;52.570;13.052;2023-07-31T14:00:08;21.30;99.90
23207;DHT22;11773;52.570;13.052;2023-07-31T14:02:38;21.50;99.90
23207;DHT22;11773;52.570;13.052;2023-07-31T14:05:08;21.40;99.90
23207;DHT22;11773;52.570;13.052;2023-07-31T14:07:38;21.50;99.90
23207;DHT22;11773;52.570;13.052;2023-07-31T14:10:08;21.50;99.90
23207;DHT22;11773;52.570;13.052;2023-07-31T14:12:38;21.60;99.90
23207;DHT22;11773;52.570;13.052;2023-07-31T14:15:09;21.70;99.90
23207;DHT22;11773;52.570;13.052;2023-07-31T14:17:39;21.60;99.90
23207;DHT22;11773;52.570;13.052;2023-07-31T14:20:10;21.40;99.90
23207;DHT22;11773;52.570;13.052;2023-07-31T14:22:41;21.40;99.90
23207;DHT22;11773;52.570;13.052;2023-07-31T14:25:10;21.60;99.90
23207;DHT22;11773;52.570;13.052;2023-07-31T14:27:41;21.70;99.90
23207;DHT22;11773;52.570;13.052;2023-07-31T14:30:10;21.70;99.90
23207;DHT22;11773;52.570;13.052;2023-07-31T14:32:40;21.70;99.90
23207;DHT22;11773;52.570;13.052;2023-07-31T14:35:09;21.60;99.90
23207;DHT22;11773;52.570;13.052;2023-07-31T14:37:40;21.90;99.90
23207;DHT22;11773;52.570;13.052;2023-07-31T14:40:12;21.70;99.90
23207;DHT22;11773;52.570;13.052;2023-07-31T14:42:42;21.60;99.90
23207;DHT22;11773;52.570;13.052;2023-07-31T14:45:11;21.80;99.90
23207;DHT22;11773;52.570;13.052;2023-07-31T14:47:41;21.60;99.90
23207;DHT22;11773;52.570;13.052;2023-07-31T14:50:11;21.50;99.90
23207;DHT22;11773;52.570;13.052;2023-07-31T14:52:40;21.40;99.90
23207;DHT22;11773;52.570;13.052;2023-07-31T14:55:10;21.40;99.90
23207;DHT22;11773;52.570;13.052;2023-07-31T14:57:39;21.40;99.90
23207;DHT22;11773;52.570;13.052;2023-07-31T15:00:09;21.40;99.90
23207;DHT22;11773;52.570;13.052;2023-07-31T15:02:40;21.60;99.90
23207;DHT22;11773;52.570;13.052;2023-07-31T15:05:09;21.50;99.90
23207;DHT22;11773;52.570;13.052;2023-07-31T15:07:39;21.60;99.90
23207;DHT22;11773;52.570;13.052;2023-07-31T15:10:09;21.40;99.90
23207;DHT22;11773;52.570;13.052;2023-07-31T15:12:40;21.60;99.90
23207;DHT22;11773;52.570;13.052;2023-07-31T15:15:10;21.60;99.90
23207;DHT22;11773;52.570;13.052;2023-07-31T15:17:40;21.60;99.90
23207;DHT22;11773;52.570;13.052;2023-07-31T15:20:10;21.50;99.90
23207;DHT22;11773;52.570;13.052;2023-07-31T15:22:40;21.60;99.90
23207;DHT22;11773;52.570;13.052;2023-07-31T15:25:10;21.40;99.90
23207;DHT22;11773;52.570;13.052;2023-07-31T15:27:39;21.30;99.90
23207;DHT22;11773;52.570;13.052;2023-07-31T15:30:09;21.40;99.90
23207;DHT22;11773;52.570;13.052;2023-07-31T15:32:39;21.40;99.90
23207;DHT22;11773;52.570;13.052;2023-07-31T15:35:09;21.40;99.90
23207;DHT22;11773;52.570;13.052;2023-07-31T15:37:38;21.60;99.90
23207;DHT22;11773;52.570;13.052;2023-07-31T15:40:08;21.50;99.90
23207;DHT22;11773;52.570;13.052;2023-07-31T15:42:38;21.60;99.90